sensor_id;sensor_type;location;lat;lon;timestamp;P1;durP1;ratioP1;P2;durP2;ratioP2
419;SDS011;42600;54.408;13.016;2023-03-13T00:01:38;13.63;;;3.27;;
419;SDS011;42600;54.408;13.016;2023-03-13T00:04:06;9.30;;;3.30;;
419;SDS011;42600;54.408;13.016;2023-03-13T00:06:34;4.63;;;1.57;;
419;SDS011;42600;54.408;13.016;2023-03-13T00:09:03;14.03;;;4.43;;
419;SDS011;42600;54.408;13.016;2023-03-13T00:11:32;13.17;;;4.73;;
419;SDS011;42600;54.408;13.016;2023-03-13T00:13:59;12.00;;;4.27;;
419;SDS011;42600;54.408;13.016;2023-03-13T00:16:28;6.43;;;2.30;;
419;SDS011;42600;54.408;13.016;2023-03-13T00:18:55;9.13;;;3.10;;
419;SDS011;42600;54.408;13.016;2023-03-13T00:21:23;14.30;;;6.00;;
419;SDS011;42600;54.408;13.016;2023-03-13T00:23:51;12.33;;;5.13;;
419;SDS011;42600;54.408;13.016;2023-03-13T00:26:20;12.13;;;4.07;;
419;SDS011;42600;54.408;13.016;2023-03-13T00:28:49;13.00;;;5.70;;
419;SDS011;42600;54.408;13.016;2023-03-13T00:31:17;8.03;;;3.40;;
419;SDS011;42600;54.408;13.016;2023-03-13T00:33:46;13.70;;;4.40;;
419;SDS011;42600;54.408;13.016;2023-03-13T00:36:14;4.83;;;2.50;;
419;SDS011;42600;54.408;13.016;2023-03-13T00:38:42;12.17;;;4.30;;
419;SDS011;42600;54.408;13.016;2023-03-13T00:41:10;9.90;;;3.90;;
419;SDS011;42600;54.408;13.016;2023-03-13T00:43:39;9.83;;;4.73;;
419;SDS011;42600;54.408;13.016;2023-03-13T00:46:07;8.53;;;5.40;;
419;SDS011;42600;54.408;13.016;2023-03-13T00:48:35;15.07;;;4.07;;
419;SDS011;42600;54.408;13.016;2023-03-13T00:51:03;14.97;;;5.37;;
419;SDS011;42600;54.408;13.016;2023-03-13T00:53:31;11.13;;;4.20;;
419;SDS011;42600;54.408;13.016;2023-03-13T00:55:58;16.60;;;6.73;;
419;SDS011;42600;54.408;13.016;2023-03-13T00:58:26;11.20;;;5.57;;
419;SDS011;42600;54.408;13.016;2023-03-13T01:00:56;21.80;;;4.97;;
419;SDS011;42600;54.408;13.016;2023-03-13T01:03:30;34.83;;;5.57;;
419;SDS011;42600;54.408;13.016;2023-03-13T01:05:57;19.63;;;6.50;;
419;SDS011;42600;54.408;13.016;2023-03-13T01:08:25;13.13;;;4.37;;
419;SDS011;42600;54.408;13.016;2023-03-13T01:10:56;21.20;;;5.80;;
419;SDS011;42600;54.408;13.016;2023-03-13T01:13:23;22.70;;;6.43;;
419;SDS011;42600;54.408;13.016;2023-03-13T01:15:50;13.87;;;5.90;;
419;SDS011;42600;54.408;13.016;2023-03-13T01:18:18;12.97;;;6.20;;
419;SDS011;42600;54.408;13.016;2023-03-13T01:20:44;13.90;;;4.40;;
419;SDS011;42600;54.408;13.016;2023-03-13T01:23:11;33.33;;;9.23;;
419;SDS011;42600;54.408;13.016;2023-03-13T01:25:37;26.10;;;6.10;;
419;SDS011;42600;54.408;13.016;2023-03-13T01:28:05;13.73;;;6.03;;
419;SDS011;42600;54.408;13.016;2023-03-13T01:30:31;9.37;;;4.30;;
419;SDS011;42600;54.408;13.016;2023-03-13T01:32:58;16.87;;;6.80;;
419;SDS011;42600;54.408;13.016;2023-03-13T01:35:27;10.13;;;3.43;;
419;SDS011;42600;54.408;13.016;2023-03-13T01:37:54;37.40;;;7.47;;
419;SDS011;42600;54.408;13.016;2023-03-13T01:40:21;15.87;;;5.37;;
419;SDS011;42600;54.408;13.016;2023-03-13T01:42:48;26.53;;;6.20;;
419;SDS011;42600;54.408;13.016;2023-03-13T01:48:21;27.47;;;7.50;;
419;SDS011;42600;54.408;13.016;2023-03-13T01:50:54;19.73;;;5.93;;
419;SDS011;42600;54.408;13.016;2023-03-13T01:53:23;19.20;;;7.13;;
419;SDS011;42600;54.408;13.016;2023-03-13T01:55:50;11.37;;;3.93;;
419;SDS011;42600;54.408;13.016;2023-03-13T01:58:18;12.80;;;7.03;;
419;SDS011;42600;54.408;13.016;2023-03-13T02:00:45;13.83;;;5.50;;
419;SDS011;42600;54.408;13.016;2023-03-13T02:03:14;23.70;;;6.67;;
419;SDS011;42600;54.408;13.016;2023-03-13T02:05:43;30.43;;;8.00;;
419;SDS011;42600;54.408;13.016;2023-03-13T02:08:14;10.80;;;4.67;;
419;SDS011;42600;54.408;13.016;2023-03-13T02:10:47;12.87;;;5.33;;
419;SDS011;42600;54.408;13.016;2023-03-13T02:13:16;18.73;;;5.37;;
419;SDS011;42600;54.408;13.016;2023-03-13T02:15:44;19.80;;;5.77;;
419;SDS011;42600;54.408;13.016;2023-03-13T02:18:11;23.07;;;6.80;;
419;SDS011;42600;54.408;13.016;2023-03-13T02:20:39;19.10;;;7.30;;
419;SDS011;42600;54.408;13.016;2023-03-13T02:23:06;16.13;;;6.67;;
419;SDS011;42600;54.408;13.016;2023-03-13T02:25:42;18.73;;;6.87;;
419;SDS011;42600;54.408;13.016;2023-03-13T02:28:11;18.30;;;5.93;;
419;SDS011;42600;54.408;13.016;2023-03-13T02:30:42;27.87;;;6.87;;
419;SDS011;42600;54.408;13.016;2023-03-13T02:33:10;31.70;;;8.70;;
419;SDS011;42600;54.408;13.016;2023-03-13T02:35:38;14.20;;;6.03;;
419;SDS011;42600;54.408;13.016;2023-03-13T02:38:06;19.93;;;6.40;;
419;SDS011;42600;54.408;13.016;2023-03-13T02:40:36;24.53;;;6.63;;
419;SDS011;42600;54.408;13.016;2023-03-13T02:43:07;19.33;;;6.37;;
419;SDS011;42600;54.408;13.016;2023-03-13T02:45:36;12.40;;;4.80;;
419;SDS011;42600;54.408;13.016;2023-03-13T02:48:03;14.53;;;7.33;;
419;SDS011;42600;54.408;13.016;2023-03-13T02:50:29;25.27;;;5.73;;
419;SDS011;42600;54.408;13.016;2023-03-13T02:52:57;28.30;;;8.03;;
419;SDS011;42600;54.408;13.016;2023-03-13T02:55:27;16.17;;;5.57;;
419;SDS011;42600;54.408;13.016;2023-03-13T02:57:56;13.80;;;5.70;;
419;SDS011;42600;54.408;13.016;2023-03-13T03:00:24;17.30;;;5.87;;
419;SDS011;42600;54.408;13.016;2023-03-13T03:02:51;21.33;;;7.33;;
419;SDS011;42600;54.408;13.016;2023-03-13T03:05:19;20.73;;;5.83;;
419;SDS011;42600;54.408;13.016;2023-03-13T03:07:46;7.80;;;3.70;;
419;SDS011;42600;54.408;13.016;2023-03-13T03:10:13;20.30;;;7.60;;
419;SDS011;42600;54.408;13.016;2023-03-13T03:12:40;23.50;;;5.20;;
419;SDS011;42600;54.408;13.016;2023-03-13T03:15:07;26.73;;;6.67;;
419;SDS011;42600;54.408;13.016;2023-03-13T03:17:35;11.97;;;5.17;;
419;SDS011;42600;54.408;13.016;2023-03-13T03:20:03;19.97;;;6.50;;
419;SDS011;42600;54.408;13.016;2023-03-13T03:22:31;13.20;;;5.87;;
419;SDS011;42600;54.408;13.016;2023-03-13T03:24:58;53.67;;;8.73;;
419;SDS011;42600;54.408;13.016;2023-03-13T03:27:25;23.43;;;6.87;;
419;SDS011;42600;54.408;13.016;2023-03-13T03:29:51;27.10;;;7.43;;
419;SDS011;42600;54.408;13.016;2023-03-13T03:32:18;40.57;;;7.20;;
419;SDS011;42600;54.408;13.016;2023-03-13T03:34:46;13.20;;;6.07;;
419;SDS011;42600;54.408;13.016;2023-03-13T03:37:12;14.20;;;4.03;;
419;SDS011;42600;54.408;13.016;2023-03-13T03:39:39;12.40;;;4.00;;
419;SDS011;42600;54.408;13.016;2023-03-13T03:42:06;29.43;;;5.17;;
419;SDS011;42600;54.408;13.016;2023-03-13T03:44:33;15.80;;;4.27;;
419;SDS011;42600;54.408;13.016;2023-03-13T03:47:00;16.20;;;4.90;;
419;SDS011;42600;54.408;13.016;2023-03-13T03:49:26;9.27;;;3.03;;
419;SDS011;42600;54.408;13.016;2023-03-13T03:51:54;34.23;;;7.00;;
419;SDS011;42600;54.408;13.016;2023-03-13T03:54:21;16.37;;;5.50;;
419;SDS011;42600;54.408;13.016;2023-03-13T03:56:47;4.23;;;2.97;;
419;SDS011;42600;54.408;13.016;2023-03-13T03:59:14;15.53;;;5.80;;
419;SDS011;42600;54.408;13.016;2023-03-13T04:01:40;16.13;;;4.87;;
419;SDS011;42600;54.408;13.016;2023-03-13T04:04:08;16.80;;;4.67;;
419;SDS011;42600;54.408;13.016;2023-03-13T04:06:34;26.80;;;6.20;;
419;SDS011;42600;54.408;13.016;2023-03-13T04:09:02;12.23;;;4.80;;
419;SDS011;42600;54.408;13.016;2023-03-13T04:11:29;14.03;;;4.40;;
419;SDS011;42600;54.408;13.016;2023-03-13T04:13:56;23.30;;;4.67;;
419;SDS011;42600;54.408;13.016;2023-03-13T04:16:22;20.07;;;4.40;;
419;SDS011;42600;54.408;13.016;2023-03-13T04:18:49;10.17;;;3.70;;
419;SDS011;42600;54.408;13.016;2023-03-13T04:21:15;8.83;;;3.80;;
419;SDS011;42600;54.408;13.016;2023-03-13T04:23:42;25.93;;;4.10;;
419;SDS011;42600;54.408;13.016;2023-03-13T04:26:10;10.43;;;4.57;;
419;SDS011;42600;54.408;13.016;2023-03-13T04:28:36;18.37;;;4.63;;
419;SDS011;42600;54.408;13.016;2023-03-13T04:31:03;22.90;;;8.83;;
419;SDS011;42600;54.408;13.016;2023-03-13T04:33:30;23.47;;;5.60;;
419;SDS011;42600;54.408;13.016;2023-03-13T04:35:56;26.67;;;4.87;;
419;SDS011;42600;54.408;13.016;2023-03-13T04:38:23;21.47;;;4.97;;
419;SDS011;42600;54.408;13.016;2023-03-13T04:40:49;19.60;;;4.53;;
419;SDS011;42600;54.408;13.016;2023-03-13T04:43:17;20.53;;;5.93;;
419;SDS011;42600;54.408;13.016;2023-03-13T04:45:44;27.53;;;5.97;;
419;SDS011;42600;54.408;13.016;2023-03-13T04:48:11;17.93;;;6.93;;
419;SDS011;42600;54.408;13.016;2023-03-13T04:50:38;16.07;;;6.30;;
419;SDS011;42600;54.408;13.016;2023-03-13T04:53:05;28.10;;;5.67;;
419;SDS011;42600;54.408;13.016;2023-03-13T04:55:31;15.80;;;6.90;;
419;SDS011;42600;54.408;13.016;2023-03-13T04:57:58;6.60;;;3.27;;
419;SDS011;42600;54.408;13.016;2023-03-13T05:00:27;7.00;;;4.63;;
419;SDS011;42600;54.408;13.016;2023-03-13T05:02:53;44.00;;;5.50;;
419;SDS011;42600;54.408;13.016;2023-03-13T05:05:20;14.27;;;4.67;;
419;SDS011;42600;54.408;13.016;2023-03-13T05:07:46;12.30;;;3.90;;
419;SDS011;42600;54.408;13.016;2023-03-13T05:10:13;14.50;;;4.70;;
419;SDS011;42600;54.408;13.016;2023-03-13T05:12:40;18.77;;;4.83;;
419;SDS011;42600;54.408;13.016;2023-03-13T05:15:07;16.53;;;5.53;;
419;SDS011;42600;54.408;13.016;2023-03-13T05:17:35;15.43;;;5.30;;
419;SDS011;42600;54.408;13.016;2023-03-13T05:20:02;13.57;;;4.60;;
419;SDS011;42600;54.408;13.016;2023-03-13T05:22:31;11.40;;;3.70;;
419;SDS011;42600;54.408;13.016;2023-03-13T05:24:58;14.27;;;4.87;;
419;SDS011;42600;54.408;13.016;2023-03-13T05:27:24;25.60;;;5.47;;
419;SDS011;42600;54.408;13.016;2023-03-13T05:29:51;12.57;;;4.40;;
419;SDS011;42600;54.408;13.016;2023-03-13T05:32:17;11.40;;;4.30;;
419;SDS011;42600;54.408;13.016;2023-03-13T05:34:45;23.60;;;6.07;;
419;SDS011;42600;54.408;13.016;2023-03-13T05:37:12;11.00;;;3.63;;
419;SDS011;42600;54.408;13.016;2023-03-13T05:39:38;23.50;;;5.63;;
419;SDS011;42600;54.408;13.016;2023-03-13T05:42:05;19.60;;;7.53;;
419;SDS011;42600;54.408;13.016;2023-03-13T05:44:32;10.83;;;3.53;;
419;SDS011;42600;54.408;13.016;2023-03-13T05:46:58;16.93;;;5.13;;
419;SDS011;42600;54.408;13.016;2023-03-13T05:49:25;12.77;;;3.93;;
419;SDS011;42600;54.408;13.016;2023-03-13T05:51:52;15.57;;;4.00;;
419;SDS011;42600;54.408;13.016;2023-03-13T05:54:19;10.33;;;3.53;;
419;SDS011;42600;54.408;13.016;2023-03-13T05:56:46;18.93;;;6.40;;
419;SDS011;42600;54.408;13.016;2023-03-13T05:59:14;23.60;;;6.77;;
419;SDS011;42600;54.408;13.016;2023-03-13T06:01:41;15.60;;;5.90;;
419;SDS011;42600;54.408;13.016;2023-03-13T06:04:07;11.60;;;3.83;;
419;SDS011;42600;54.408;13.016;2023-03-13T06:06:34;5.10;;;3.53;;
419;SDS011;42600;54.408;13.016;2023-03-13T06:09:02;21.00;;;4.83;;
419;SDS011;42600;54.408;13.016;2023-03-13T06:11:28;9.63;;;4.60;;
419;SDS011;42600;54.408;13.016;2023-03-13T06:13:55;8.63;;;3.77;;
419;SDS011;42600;54.408;13.016;2023-03-13T06:16:21;24.30;;;5.30;;
419;SDS011;42600;54.408;13.016;2023-03-13T06:18:48;10.30;;;4.40;;
419;SDS011;42600;54.408;13.016;2023-03-13T06:21:15;8.20;;;3.57;;
419;SDS011;42600;54.408;13.016;2023-03-13T06:23:41;23.20;;;5.73;;
419;SDS011;42600;54.408;13.016;2023-03-13T06:26:09;12.70;;;3.77;;
419;SDS011;42600;54.408;13.016;2023-03-13T06:28:36;14.90;;;4.03;;
419;SDS011;42600;54.408;13.016;2023-03-13T06:31:03;9.90;;;4.17;;
419;SDS011;42600;54.408;13.016;2023-03-13T06:33:31;10.37;;;3.73;;
419;SDS011;42600;54.408;13.016;2023-03-13T06:35:59;17.97;;;5.57;;
419;SDS011;42600;54.408;13.016;2023-03-13T06:38:26;12.13;;;3.93;;
419;SDS011;42600;54.408;13.016;2023-03-13T06:40:52;14.93;;;3.07;;
419;SDS011;42600;54.408;13.016;2023-03-13T06:43:20;27.87;;;3.63;;
419;SDS011;42600;54.408;13.016;2023-03-13T06:45:47;12.43;;;2.90;;
419;SDS011;42600;54.408;13.016;2023-03-13T06:48:14;6.00;;;2.73;;
419;SDS011;42600;54.408;13.016;2023-03-13T06:50:41;11.00;;;3.20;;
419;SDS011;42600;54.408;13.016;2023-03-13T06:53:09;6.93;;;2.13;;
419;SDS011;42600;54.408;13.016;2023-03-13T06:55:40;6.80;;;1.87;;
419;SDS011;42600;54.408;13.016;2023-03-13T06:58:07;4.53;;;1.83;;
419;SDS011;42600;54.408;13.016;2023-03-13T07:00:35;10.43;;;3.10;;
419;SDS011;42600;54.408;13.016;2023-03-13T07:03:03;5.03;;;2.10;;
419;SDS011;42600;54.408;13.016;2023-03-13T07:05:30;6.27;;;2.00;;
419;SDS011;42600;54.408;13.016;2023-03-13T07:07:57;5.90;;;2.37;;
419;SDS011;42600;54.408;13.016;2023-03-13T07:10:24;7.90;;;2.17;;
419;SDS011;42600;54.408;13.016;2023-03-13T07:12:50;24.93;;;2.80;;
419;SDS011;42600;54.408;13.016;2023-03-13T07:15:17;5.93;;;2.03;;
419;SDS011;42600;54.408;13.016;2023-03-13T07:17:45;8.33;;;3.87;;
419;SDS011;42600;54.408;13.016;2023-03-13T07:20:11;6.00;;;2.27;;
419;SDS011;42600;54.408;13.016;2023-03-13T07:22:38;12.77;;;4.47;;
419;SDS011;42600;54.408;13.016;2023-03-13T07:25:05;3.87;;;2.30;;
419;SDS011;42600;54.408;13.016;2023-03-13T07:27:33;3.83;;;1.67;;
419;SDS011;42600;54.408;13.016;2023-03-13T07:30:00;5.50;;;2.67;;
419;SDS011;42600;54.408;13.016;2023-03-13T07:32:29;11.23;;;2.03;;
419;SDS011;42600;54.408;13.016;2023-03-13T07:34:58;14.63;;;3.00;;
419;SDS011;42600;54.408;13.016;2023-03-13T07:37:24;19.73;;;3.43;;
419;SDS011;42600;54.408;13.016;2023-03-13T07:39:51;9.40;;;3.50;;
419;SDS011;42600;54.408;13.016;2023-03-13T07:42:17;3.30;;;2.07;;
419;SDS011;42600;54.408;13.016;2023-03-13T07:44:44;5.43;;;2.03;;
419;SDS011;42600;54.408;13.016;2023-03-13T07:47:10;7.50;;;2.60;;
419;SDS011;42600;54.408;13.016;2023-03-13T07:49:37;8.13;;;2.03;;
419;SDS011;42600;54.408;13.016;2023-03-13T07:52:09;7.60;;;2.97;;
419;SDS011;42600;54.408;13.016;2023-03-13T07:54:35;7.03;;;2.10;;
419;SDS011;42600;54.408;13.016;2023-03-13T07:57:02;17.83;;;2.20;;
419;SDS011;42600;54.408;13.016;2023-03-13T07:59:29;20.07;;;3.00;;
419;SDS011;42600;54.408;13.016;2023-03-13T08:01:55;2.70;;;1.70;;
419;SDS011;42600;54.408;13.016;2023-03-13T08:04:22;7.40;;;1.77;;
419;SDS011;42600;54.408;13.016;2023-03-13T08:06:48;19.03;;;3.17;;
419;SDS011;42600;54.408;13.016;2023-03-13T08:09:17;7.63;;;1.70;;
419;SDS011;42600;54.408;13.016;2023-03-13T08:11:44;15.70;;;2.50;;
419;SDS011;42600;54.408;13.016;2023-03-13T08:14:10;5.40;;;1.90;;
419;SDS011;42600;54.408;13.016;2023-03-13T08:16:37;4.40;;;1.30;;
419;SDS011;42600;54.408;13.016;2023-03-13T08:19:04;2.80;;;1.93;;
419;SDS011;42600;54.408;13.016;2023-03-13T08:21:31;7.23;;;2.93;;
419;SDS011;42600;54.408;13.016;2023-03-13T08:24:00;8.33;;;2.33;;
419;SDS011;42600;54.408;13.016;2023-03-13T08:26:31;6.47;;;1.97;;
419;SDS011;42600;54.408;13.016;2023-03-13T08:29:00;11.03;;;2.73;;
419;SDS011;42600;54.408;13.016;2023-03-13T08:31:29;2.60;;;2.00;;
419;SDS011;42600;54.408;13.016;2023-03-13T08:33:57;3.00;;;2.37;;
419;SDS011;42600;54.408;13.016;2023-03-13T08:36:25;5.20;;;2.40;;
419;SDS011;42600;54.408;13.016;2023-03-13T08:38:53;1.97;;;0.83;;
419;SDS011;42600;54.408;13.016;2023-03-13T08:41:25;5.27;;;2.03;;
419;SDS011;42600;54.408;13.016;2023-03-13T08:43:54;4.40;;;1.50;;
419;SDS011;42600;54.408;13.016;2023-03-13T08:46:22;15.17;;;2.60;;
419;SDS011;42600;54.408;13.016;2023-03-13T08:48:49;1.93;;;0.90;;
419;SDS011;42600;54.408;13.016;2023-03-13T08:51:16;2.57;;;1.40;;
419;SDS011;42600;54.408;13.016;2023-03-13T08:53:44;1.53;;;1.00;;
419;SDS011;42600;54.408;13.016;2023-03-13T08:56:12;6.70;;;1.40;;
419;SDS011;42600;54.408;13.016;2023-03-13T08:58:39;2.70;;;1.50;;
419;SDS011;42600;54.408;13.016;2023-03-13T09:01:08;10.50;;;1.03;;
419;SDS011;42600;54.408;13.016;2023-03-13T09:03:36;3.17;;;1.80;;
419;SDS011;42600;54.408;13.016;2023-03-13T09:06:03;2.23;;;1.23;;
419;SDS011;42600;54.408;13.016;2023-03-13T09:08:30;2.40;;;1.33;;
419;SDS011;42600;54.408;13.016;2023-03-13T09:10:58;1.87;;;1.20;;
419;SDS011;42600;54.408;13.016;2023-03-13T09:13:26;1.77;;;1.60;;
419;SDS011;42600;54.408;13.016;2023-03-13T09:15:54;1.80;;;0.90;;
419;SDS011;42600;54.408;13.016;2023-03-13T09:18:23;3.70;;;0.80;;
419;SDS011;42600;54.408;13.016;2023-03-13T09:20:50;0.90;;;0.50;;
419;SDS011;42600;54.408;13.016;2023-03-13T09:23:17;1.00;;;0.67;;
419;SDS011;42600;54.408;13.016;2023-03-13T09:25:44;0.80;;;0.40;;
419;SDS011;42600;54.408;13.016;2023-03-13T09:28:11;6.50;;;2.17;;
419;SDS011;42600;54.408;13.016;2023-03-13T09:30:38;1.10;;;0.60;;
419;SDS011;42600;54.408;13.016;2023-03-13T09:33:04;3.43;;;0.80;;
419;SDS011;42600;54.408;13.016;2023-03-13T09:35:32;1.00;;;0.70;;
419;SDS011;42600;54.408;13.016;2023-03-13T09:37:59;2.40;;;0.90;;
419;SDS011;42600;54.408;13.016;2023-03-13T09:40:26;4.60;;;0.93;;
419;SDS011;42600;54.408;13.016;2023-03-13T09:42:54;0.93;;;0.57;;
419;SDS011;42600;54.408;13.016;2023-03-13T09:45:26;1.77;;;1.13;;
419;SDS011;42600;54.408;13.016;2023-03-13T09:47:58;5.40;;;1.67;;
419;SDS011;42600;54.408;13.016;2023-03-13T09:50:31;9.60;;;1.23;;
419;SDS011;42600;54.408;13.016;2023-03-13T09:53:02;2.47;;;1.10;;
419;SDS011;42600;54.408;13.016;2023-03-13T09:55:36;1.37;;;0.80;;
419;SDS011;42600;54.408;13.016;2023-03-13T09:58:07;1.77;;;0.97;;
419;SDS011;42600;54.408;13.016;2023-03-13T10:00:40;2.17;;;1.13;;
419;SDS011;42600;54.408;13.016;2023-03-13T10:03:13;3.10;;;1.53;;
419;SDS011;42600;54.408;13.016;2023-03-13T10:05:47;1.10;;;0.80;;
419;SDS011;42600;54.408;13.016;2023-03-13T10:08:17;1.27;;;0.80;;
419;SDS011;42600;54.408;13.016;2023-03-13T10:10:47;1.47;;;0.90;;
419;SDS011;42600;54.408;13.016;2023-03-13T10:13:21;0.80;;;0.40;;
419;SDS011;42600;54.408;13.016;2023-03-13T10:15:52;3.53;;;1.43;;
419;SDS011;42600;54.408;13.016;2023-03-13T10:18:22;1.47;;;0.80;;
419;SDS011;42600;54.408;13.016;2023-03-13T10:20:50;1.50;;;1.07;;
419;SDS011;42600;54.408;13.016;2023-03-13T10:23:20;1.80;;;0.63;;
419;SDS011;42600;54.408;13.016;2023-03-13T10:25:51;1.67;;;0.73;;
419;SDS011;42600;54.408;13.016;2023-03-13T10:28:17;1.37;;;0.60;;
419;SDS011;42600;54.408;13.016;2023-03-13T10:30:46;1.60;;;0.90;;
419;SDS011;42600;54.408;13.016;2023-03-13T10:33:21;1.00;;;0.67;;
419;SDS011;42600;54.408;13.016;2023-03-13T10:35:59;1.10;;;0.60;;
419;SDS011;42600;54.408;13.016;2023-03-13T10:38:28;1.03;;;0.80;;
419;SDS011;42600;54.408;13.016;2023-03-13T10:40:59;1.40;;;0.80;;
419;SDS011;42600;54.408;13.016;2023-03-13T10:43:28;1.63;;;0.63;;
419;SDS011;42600;54.408;13.016;2023-03-13T10:45:54;1.40;;;0.80;;
419;SDS011;42600;54.408;13.016;2023-03-13T10:48:22;2.13;;;1.10;;
419;SDS011;42600;54.408;13.016;2023-03-13T10:50:51;0.90;;;0.50;;
419;SDS011;42600;54.408;13.016;2023-03-13T10:53:31;5.70;;;1.33;;
419;SDS011;42600;54.408;13.016;2023-03-13T10:55:59;1.87;;;1.17;;
419;SDS011;42600;54.408;13.016;2023-03-13T10:58:35;3.60;;;1.67;;
419;SDS011;42600;54.408;13.016;2023-03-13T11:03:53;5.27;;;0.90;;
419;SDS011;42600;54.408;13.016;2023-03-13T11:06:28;2.00;;;1.23;;
419;SDS011;42600;54.408;13.016;2023-03-13T11:09:02;1.20;;;0.57;;
419;SDS011;42600;54.408;13.016;2023-03-13T11:11:44;1.47;;;0.97;;
419;SDS011;42600;54.408;13.016;2023-03-13T11:14:13;1.63;;;0.90;;
419;SDS011;42600;54.408;13.016;2023-03-13T11:16:44;0.90;;;0.50;;
419;SDS011;42600;54.408;13.016;2023-03-13T11:19:17;0.90;;;0.50;;
419;SDS011;42600;54.408;13.016;2023-03-13T11:21:56;1.20;;;0.80;;
419;SDS011;42600;54.408;13.016;2023-03-13T11:24:38;3.73;;;1.03;;
419;SDS011;42600;54.408;13.016;2023-03-13T11:27:10;3.53;;;1.23;;
419;SDS011;42600;54.408;13.016;2023-03-13T11:29:46;3.77;;;1.50;;
419;SDS011;42600;54.408;13.016;2023-03-13T11:32:21;1.97;;;1.17;;
419;SDS011;42600;54.408;13.016;2023-03-13T11:34:55;6.13;;;1.10;;
419;SDS011;42600;54.408;13.016;2023-03-13T11:37:25;1.00;;;0.70;;
419;SDS011;42600;54.408;13.016;2023-03-13T11:40:00;1.03;;;0.53;;
419;SDS011;42600;54.408;13.016;2023-03-13T11:42:47;7.13;;;1.20;;
419;SDS011;42600;54.408;13.016;2023-03-13T11:45:53;2.77;;;1.30;;
419;SDS011;42600;54.408;13.016;2023-03-13T11:51:47;3.90;;;1.23;;
419;SDS011;42600;54.408;13.016;2023-03-13T11:57:31;1.93;;;1.37;;
419;SDS011;42600;54.408;13.016;2023-03-13T12:00:14;1.57;;;0.97;;
419;SDS011;42600;54.408;13.016;2023-03-13T12:02:47;3.03;;;0.83;;
419;SDS011;42600;54.408;13.016;2023-03-13T12:05:17;7.30;;;1.43;;
419;SDS011;42600;54.408;13.016;2023-03-13T12:07:46;1.87;;;1.37;;
419;SDS011;42600;54.408;13.016;2023-03-13T12:10:18;3.53;;;1.47;;
419;SDS011;42600;54.408;13.016;2023-03-13T12:12:53;1.77;;;1.10;;
419;SDS011;42600;54.408;13.016;2023-03-13T12:15:27;6.70;;;1.60;;
419;SDS011;42600;54.408;13.016;2023-03-13T12:17:56;3.23;;;1.83;;
419;SDS011;42600;54.408;13.016;2023-03-13T12:20:27;7.33;;;2.00;;
419;SDS011;42600;54.408;13.016;2023-03-13T12:23:01;4.63;;;1.40;;
419;SDS011;42600;54.408;13.016;2023-03-13T12:25:42;2.30;;;1.20;;
419;SDS011;42600;54.408;13.016;2023-03-13T12:28:17;4.07;;;1.73;;
419;SDS011;42600;54.408;13.016;2023-03-13T12:30:52;3.73;;;1.27;;
419;SDS011;42600;54.408;13.016;2023-03-13T12:33:25;3.50;;;1.53;;
419;SDS011;42600;54.408;13.016;2023-03-13T12:35:56;6.87;;;1.80;;
419;SDS011;42600;54.408;13.016;2023-03-13T12:38:29;3.43;;;1.37;;
419;SDS011;42600;54.408;13.016;2023-03-13T12:41:05;3.10;;;1.23;;
419;SDS011;42600;54.408;13.016;2023-03-13T12:43:39;3.33;;;1.80;;
419;SDS011;42600;54.408;13.016;2023-03-13T12:46:12;3.23;;;1.73;;
419;SDS011;42600;54.408;13.016;2023-03-13T12:49:01;4.90;;;1.87;;
419;SDS011;42600;54.408;13.016;2023-03-13T12:51:59;2.90;;;1.63;;
419;SDS011;42600;54.408;13.016;2023-03-13T12:54:39;5.70;;;2.50;;
419;SDS011;42600;54.408;13.016;2023-03-13T12:57:15;4.47;;;2.10;;
419;SDS011;42600;54.408;13.016;2023-03-13T13:00:06;6.97;;;2.00;;
419;SDS011;42600;54.408;13.016;2023-03-13T13:03:00;8.80;;;2.60;;
419;SDS011;42600;54.408;13.016;2023-03-13T13:05:34;3.93;;;1.80;;
419;SDS011;42600;54.408;13.016;2023-03-13T13:08:01;14.73;;;1.73;;
419;SDS011;42600;54.408;13.016;2023-03-13T13:10:28;2.17;;;1.40;;
419;SDS011;42600;54.408;13.016;2023-03-13T13:15:44;2.27;;;1.47;;
419;SDS011;42600;54.408;13.016;2023-03-13T13:18:14;2.50;;;0.93;;
419;SDS011;42600;54.408;13.016;2023-03-13T13:20:49;3.00;;;1.70;;
419;SDS011;42600;54.408;13.016;2023-03-13T13:23:46;3.03;;;1.80;;
419;SDS011;42600;54.408;13.016;2023-03-13T13:32:31;4.10;;;2.77;;
419;SDS011;42600;54.408;13.016;2023-03-13T13:35:16;3.10;;;1.87;;
419;SDS011;42600;54.408;13.016;2023-03-13T13:38:25;3.33;;;1.47;;
419;SDS011;42600;54.408;13.016;2023-03-13T13:41:04;5.30;;;1.47;;
419;SDS011;42600;54.408;13.016;2023-03-13T13:46:48;2.10;;;1.03;;
419;SDS011;42600;54.408;13.016;2023-03-13T13:49:16;3.60;;;1.30;;
419;SDS011;42600;54.408;13.016;2023-03-13T13:54:56;1.67;;;1.10;;
419;SDS011;42600;54.408;13.016;2023-03-13T13:57:24;2.30;;;1.43;;
419;SDS011;42600;54.408;13.016;2023-03-13T13:59:52;2.97;;;1.70;;
419;SDS011;42600;54.408;13.016;2023-03-13T14:02:22;6.53;;;1.60;;
419;SDS011;42600;54.408;13.016;2023-03-13T14:04:51;1.47;;;0.93;;
419;SDS011;42600;54.408;13.016;2023-03-13T14:07:23;5.40;;;1.40;;
419;SDS011;42600;54.408;13.016;2023-03-13T14:09:58;2.63;;;1.47;;
419;SDS011;42600;54.408;13.016;2023-03-13T14:12:29;1.73;;;0.63;;
419;SDS011;42600;54.408;13.016;2023-03-13T14:15:07;5.83;;;1.40;;
419;SDS011;42600;54.408;13.016;2023-03-13T14:17:37;3.40;;;2.13;;
419;SDS011;42600;54.408;13.016;2023-03-13T14:20:14;3.83;;;1.90;;
419;SDS011;42600;54.408;13.016;2023-03-13T14:22:59;2.73;;;1.50;;
419;SDS011;42600;54.408;13.016;2023-03-13T14:25:39;5.63;;;2.47;;
419;SDS011;42600;54.408;13.016;2023-03-13T14:28:15;2.13;;;1.43;;
419;SDS011;42600;54.408;13.016;2023-03-13T14:30:43;1.80;;;1.00;;
419;SDS011;42600;54.408;13.016;2023-03-13T14:33:10;5.47;;;2.00;;
419;SDS011;42600;54.408;13.016;2023-03-13T14:35:37;2.00;;;1.17;;
419;SDS011;42600;54.408;13.016;2023-03-13T14:38:04;2.57;;;1.60;;
419;SDS011;42600;54.408;13.016;2023-03-13T14:40:36;5.60;;;1.90;;
419;SDS011;42600;54.408;13.016;2023-03-13T14:43:03;2.67;;;1.40;;
419;SDS011;42600;54.408;13.016;2023-03-13T14:45:44;4.57;;;1.60;;
419;SDS011;42600;54.408;13.016;2023-03-13T14:48:13;7.30;;;1.60;;
419;SDS011;42600;54.408;13.016;2023-03-13T14:50:44;3.13;;;1.60;;
419;SDS011;42600;54.408;13.016;2023-03-13T14:53:12;2.00;;;1.10;;
419;SDS011;42600;54.408;13.016;2023-03-13T14:55:43;3.77;;;1.60;;
419;SDS011;42600;54.408;13.016;2023-03-13T14:58:24;3.00;;;1.43;;
419;SDS011;42600;54.408;13.016;2023-03-13T15:00:53;3.13;;;1.50;;
419;SDS011;42600;54.408;13.016;2023-03-13T15:03:26;8.37;;;1.90;;
419;SDS011;42600;54.408;13.016;2023-03-13T15:06:14;3.90;;;1.50;;
419;SDS011;42600;54.408;13.016;2023-03-13T15:08:42;1.97;;;1.30;;
419;SDS011;42600;54.408;13.016;2023-03-13T15:13:56;4.40;;;1.60;;
419;SDS011;42600;54.408;13.016;2023-03-13T15:16:23;5.13;;;1.80;;
419;SDS011;42600;54.408;13.016;2023-03-13T15:18:51;2.27;;;1.50;;
419;SDS011;42600;54.408;13.016;2023-03-13T15:21:19;6.80;;;2.50;;
419;SDS011;42600;54.408;13.016;2023-03-13T15:23:50;3.90;;;1.77;;
419;SDS011;42600;54.408;13.016;2023-03-13T15:26:18;3.23;;;1.83;;
419;SDS011;42600;54.408;13.016;2023-03-13T15:28:46;5.50;;;1.60;;
419;SDS011;42600;54.408;13.016;2023-03-13T15:31:13;3.37;;;1.40;;
419;SDS011;42600;54.408;13.016;2023-03-13T15:33:40;3.87;;;1.70;;
419;SDS011;42600;54.408;13.016;2023-03-13T15:36:07;5.13;;;1.50;;
419;SDS011;42600;54.408;13.016;2023-03-13T15:38:35;2.57;;;1.53;;
419;SDS011;42600;54.408;13.016;2023-03-13T15:41:01;2.70;;;1.50;;